Time;durP1;ratioP1;P1;durP2;ratioP2;P2;SDS_P1;SDS_P2;PMS_P1;PMS_P2;Temp;Humidity;BMP_temperature;BMP_pressure;BME280_temperature;BME280_humidity;BME280_pressure;Samples;Min_cycle;Max_cycle;Signal;HPM_P1;HPM_P2
2024/01/19 00:01:38;;;;;;;5.03;2.27;;;2.00;91.30;;;3.80;61.42;100849.00;3083117;46;20514;-73
2024/01/19 00:04:06;;;;;;;7.07;2.83;;;2.10;91.40;;;3.84;61.65;100845.19;3083368;46;20434;-73
2024/01/19 00:06:39;;;;;;;5.43;2.47;;;2.10;91.40;;;3.89;61.35;100848.22;3083188;46;20449;-73
2024/01/19 00:09:07;;;;;;;3.83;2.17;;;2.10;91.40;;;3.91;61.49;100854.97;3082915;46;20445;-73
2024/01/19 00:11:36;;;;;;;4.90;2.27;;;2.10;91.40;;;3.92;61.37;100859.19;3083024;46;20517;-73
2024/01/19 00:14:04;;;;;;;8.33;2.47;;;2.20;91.40;;;3.91;61.41;100861.94;3083184;46;20524;-73
2024/01/19 00:16:33;;;;;;;7.93;2.37;;;2.20;91.30;;;3.88;61.43;100860.41;3083049;46;20433;-74
2024/01/19 00:19:01;;;;;;;8.33;2.90;;;2.20;91.20;;;3.84;61.20;100853.81;3082637;46;20462;-73
2024/01/19 00:21:29;;;;;;;4.20;2.10;;;2.20;91.20;;;3.81;61.16;100861.03;3082899;46;20456;-73
2024/01/19 00:23:58;;;;;;;3.93;2.37;;;2.20;91.10;;;3.77;61.07;100852.69;3082985;46;20434;-73
2024/01/19 00:26:26;;;;;;;3.03;2.20;;;2.20;91.10;;;3.74;61.34;100850.34;3082728;46;21037;-72
2024/01/19 00:28:55;;;;;;;3.37;1.93;;;2.20;91.10;;;3.71;61.15;100855.78;3082461;46;20445;-73
2024/01/19 00:31:26;;;;;;;6.93;2.10;;;2.10;91.10;;;3.69;61.36;100852.50;3082952;46;20437;-73
2024/01/19 00:33:54;;;;;;;5.83;1.60;;;2.10;91.10;;;3.66;61.51;100852.75;3082927;46;20434;-73
2024/01/19 00:36:23;;;;;;;7.60;2.10;;;2.10;91.10;;;3.63;61.54;100850.41;3082823;46;21036;-72
2024/01/19 00:38:54;;;;;;;8.23;2.47;;;2.10;91.20;;;3.60;61.08;100848.06;3082547;46;21006;-73
2024/01/19 00:41:23;;;;;;;3.70;2.40;;;2.00;91.10;;;3.57;61.64;100853.50;3082963;46;20488;-72
2024/01/19 00:43:52;;;;;;;3.03;1.90;;;2.00;91.10;;;3.54;61.41;100848.56;3082955;46;20434;-73
2024/01/19 00:46:20;;;;;;;3.00;2.23;;;2.00;91.30;;;3.55;61.40;100857.19;3083080;46;20466;-72
2024/01/19 00:48:49;;;;;;;6.80;2.30;;;2.00;91.60;;;3.53;61.73;100846.09;3082484;46;21047;-72
2024/01/19 00:51:18;;;;;;;4.77;1.70;;;2.00;91.40;;;3.52;61.82;100860.88;3082268;46;20446;-73
2024/01/19 00:53:46;;;;;;;5.47;1.87;;;2.00;91.50;;;3.52;62.13;100866.06;3082682;46;21102;-73
2024/01/19 00:56:15;;;;;;;1.90;1.60;;;2.00;91.50;;;3.51;61.93;100861.81;3082699;46;20468;-73
2024/01/19 00:58:45;;;;;;;4.20;1.93;;;1.90;91.70;;;3.54;61.95;100865.97;3080975;46;20507;-73
2024/01/19 01:01:14;;;;;;;5.13;1.90;;;1.90;91.80;;;3.53;62.36;100867.72;3082783;46;20596;-72
2024/01/19 01:03:42;;;;;;;6.27;2.60;;;2.00;91.90;;;3.53;62.23;100882.50;3082675;46;20462;-73
2024/01/19 01:06:10;;;;;;;3.53;1.73;;;1.90;91.90;;;3.53;62.30;100893.75;3082593;46;20444;-73
2024/01/19 01:08:39;;;;;;;7.67;1.87;;;2.00;91.90;;;3.53;62.52;100893.75;3082061;46;20467;-73
2024/01/19 01:11:07;;;;;;;5.27;1.60;;;1.90;91.90;;;3.54;62.26;100899.78;3082404;46;21115;-73
2024/01/19 01:13:36;;;;;;;4.60;1.83;;;1.90;91.90;;;3.55;62.33;100906.63;3082487;46;20428;-73
2024/01/19 01:16:04;;;;;;;5.53;1.80;;;1.90;92.00;;;3.54;62.72;100900.59;3082232;46;20435;-73
2024/01/19 01:18:33;;;;;;;2.57;1.93;;;1.90;91.90;;;3.55;62.79;100902.25;3081753;46;20450;-73
2024/01/19 01:21:01;;;;;;;8.80;2.43;;;2.00;92.10;;;3.59;62.43;100901.03;3082042;46;20564;-73
2024/01/19 01:23:31;;;;;;;2.37;1.20;;;2.00;92.10;;;3.62;62.43;100910.38;3081436;46;20468;-73
2024/01/19 01:25:59;;;;;;;3.43;1.43;;;2.00;92.10;;;3.63;62.71;100910.25;3082116;46;20442;-73
2024/01/19 01:28:27;;;;;;;6.03;1.70;;;2.00;92.00;;;3.63;62.63;100910.25;3081742;46;20450;-73
2024/01/19 01:30:56;;;;;;;4.93;1.70;;;2.00;92.00;;;3.68;62.80;100913.31;3081499;46;21053;-72
2024/01/19 01:33:24;;;;;;;7.03;2.13;;;2.10;92.10;;;3.74;62.63;100914.56;3081887;46;20495;-72
2024/01/19 01:35:53;;;;;;;3.17;1.83;;;2.10;92.10;;;3.79;62.61;100921.03;3082194;46;20469;-73
2024/01/19 01:38:22;;;;;;;5.50;1.60;;;2.10;92.10;;;3.81;62.51;100924.34;3081800;46;20450;-72
2024/01/19 01:40:50;;;;;;;4.77;1.77;;;2.10;91.90;;;3.84;62.33;100939.72;3082068;46;20443;-72
2024/01/19 01:43:24;;;;;;;4.93;1.80;;;2.20;92.00;;;3.85;62.25;100941.34;3081985;46;20433;-73
2024/01/19 01:45:53;;;;;;;2.57;1.70;;;2.20;91.90;;;3.90;62.49;100944.41;3081280;46;21094;-73
2024/01/19 01:48:24;;;;;;;3.30;1.67;;;2.20;91.90;;;3.95;62.39;100941.41;3081573;46;20478;-73
2024/01/19 01:50:55;;;;;;;2.97;1.40;;;2.20;91.90;;;4.02;61.99;100953.81;3081967;46;21139;-72
2024/01/19 01:53:25;;;;;;;2.77;1.60;;;2.30;91.90;;;4.09;61.92;100954.94;3081989;46;21080;-72
2024/01/19 01:55:54;;;;;;;9.60;1.43;;;2.30;91.90;;;4.13;62.09;100950.31;3082000;46;20463;-73
2024/01/19 01:58:23;;;;;;;4.00;1.57;;;2.30;91.90;;;4.15;61.91;100942.38;3082040;46;20478;-72
2024/01/19 02:00:52;;;;;;;5.10;1.60;;;2.40;91.80;;;4.15;61.89;100944.97;3082196;46;20492;-73
2024/01/19 02:03:21;;;;;;;2.13;1.27;;;2.40;91.70;;;4.11;61.59;100941.81;3081022;46;21006;-72
2024/01/19 02:05:49;;;;;;;3.93;1.57;;;2.40;91.50;;;4.06;61.38;100943.97;3081346;46;20456;-72
2024/01/19 02:08:18;;;;;;;4.83;1.37;;;2.40;91.50;;;4.02;61.49;100938.19;3081490;46;20451;-73
2024/01/19 02:10:47;;;;;;;1.93;1.40;;;2.40;91.40;;;3.98;61.50;100947.22;3081232;46;21045;-72
2024/01/19 02:13:16;;;;;;;4.73;1.83;;;2.40;91.40;;;3.95;61.53;100954.44;3081045;46;20434;-73
2024/01/19 02:15:45;;;;;;;8.70;1.70;;;2.30;91.40;;;3.89;61.95;100942.78;3081451;46;20487;-73
2024/01/19 02:18:13;;;;;;;3.00;1.87;;;2.30;91.40;;;3.86;61.52;100943.00;3081415;46;20457;-73
2024/01/19 02:20:42;;;;;;;4.93;1.73;;;2.30;91.40;;;3.80;61.56;100943.53;3081542;46;20458;-73
2024/01/19 02:23:15;;;;;;;3.40;1.50;;;2.30;91.40;;;3.76;61.70;100952.53;3081966;46;20585;-73
2024/01/19 02:25:43;;;;;;;3.20;1.53;;;2.20;91.40;;;3.73;61.62;100947.56;3080941;46;20567;-72
2024/01/19 02:28:12;;;;;;;6.10;1.83;;;2.20;91.40;;;3.71;61.89;100949.47;3081426;46;20511;-73
2024/01/19 02:30:44;;;;;;;3.43;1.60;;;2.20;91.50;;;3.68;61.64;100949.75;3081078;46;20481;-73
2024/01/19 02:33:13;;;;;;;5.83;1.80;;;2.20;91.50;;;3.67;62.03;100962.84;3081806;46;20496;-73
2024/01/19 02:35:41;;;;;;;6.10;1.87;;;2.10;91.60;;;3.67;61.90;100962.84;3081383;46;20459;-72
2024/01/19 02:38:10;;;;;;;4.13;1.97;;;2.10;91.70;;;3.65;62.22;100963.00;3081263;46;21132;-73
2024/01/19 02:40:38;;;;;;;2.10;1.47;;;2.00;91.60;;;3.63;62.18;100951.88;3081489;46;20434;-73
2024/01/19 02:43:07;;;;;;;2.57;1.60;;;2.10;91.70;;;3.61;62.28;100952.97;3081367;46;20463;-73
2024/01/19 02:45:35;;;;;;;2.50;1.27;;;2.00;91.70;;;3.59;62.37;100960.06;3081440;46;20447;-72
2024/01/19 02:48:04;;;;;;;2.77;1.80;;;2.00;91.70;;;3.58;61.92;100956.63;3081023;46;20446;-73
2024/01/19 02:50:32;;;;;;;2.73;1.50;;;2.00;91.70;;;3.56;62.42;100961.16;3081585;46;21025;-72
2024/01/19 02:53:01;;;;;;;2.93;1.70;;;2.00;91.70;;;3.54;62.15;100963.06;3081206;46;20439;-74
2024/01/19 02:55:29;;;;;;;6.20;2.20;;;2.00;91.70;;;3.53;62.28;100956.19;3081340;46;20503;-72
2024/01/19 02:57:57;;;;;;;2.27;1.60;;;2.00;91.80;;;3.52;62.11;100962.31;3080587;46;20439;-73
2024/01/19 03:00:26;;;;;;;3.60;1.87;;;2.00;91.90;;;3.50;62.43;100979.00;3081476;46;20438;-73
2024/01/19 03:02:54;;;;;;;3.97;2.20;;;1.90;91.70;;;3.48;62.35;100968.72;3081071;46;20485;-72
2024/01/19 03:05:23;;;;;;;7.13;1.73;;;1.90;91.70;;;3.47;62.23;100969.66;3081277;46;20446;-73
2024/01/19 03:07:51;;;;;;;4.03;1.70;;;1.90;91.70;;;3.47;62.23;100967.06;3080221;46;20534;-73
2024/01/19 03:10:22;;;;;;;2.47;1.67;;;1.90;91.80;;;3.46;62.32;100970.63;3081314;46;20438;-73
2024/01/19 03:12:50;;;;;;;5.47;1.77;;;1.90;91.80;;;3.45;62.34;100968.16;3081101;46;20452;-73
2024/01/19 03:15:18;;;;;;;6.33;1.77;;;1.90;91.80;;;3.43;62.65;100965.66;3081187;46;20580;-73
2024/01/19 03:17:47;;;;;;;5.80;1.80;;;1.80;91.80;;;3.42;62.66;100964.84;3080741;46;20442;-72
2024/01/19 03:20:15;;;;;;;4.13;1.63;;;1.80;91.90;;;3.41;62.40;100968.41;3080938;46;20499;-73
2024/01/19 03:22:44;;;;;;;6.80;1.60;;;1.80;91.90;;;3.40;62.89;100971.94;3081952;46;20500;-73
2024/01/19 03:25:12;;;;;;;5.50;2.20;;;1.80;92.00;;;3.41;62.60;100967.56;3083522;46;21033;-73
2024/01/19 03:27:40;;;;;;;3.30;1.90;;;1.80;92.00;;;3.40;62.64;100971.09;3083185;46;20752;-73
2024/01/19 03:30:10;;;;;;;6.13;1.53;;;1.80;92.10;;;3.41;62.69;100972.78;3083624;46;20458;-73
2024/01/19 03:32:38;;;;;;;2.53;1.57;;;1.80;92.10;;;3.44;62.74;100993.34;3083281;46;20462;-73
2024/01/19 03:35:08;;;;;;;6.07;1.30;;;1.80;92.20;;;3.49;63.06;100990.38;3083605;46;20561;-73
2024/01/19 03:37:36;;;;;;;6.80;1.77;;;1.80;92.30;;;3.52;63.13;100996.13;3083086;46;20459;-73
2024/01/19 03:40:06;;;;;;;2.87;1.40;;;1.80;92.40;;;3.57;62.89;101004.41;3083342;46;21119;-73
2024/01/19 03:42:34;;;;;;;4.30;2.07;;;1.90;92.50;;;3.63;62.98;100998.72;3083422;46;20438;-73
2024/01/19 03:45:04;;;;;;;5.93;1.37;;;1.90;92.50;;;3.69;62.77;101007.78;3083372;46;20484;-73
2024/01/19 03:47:33;;;;;;;4.37;1.20;;;1.90;92.50;;;3.76;63.09;101009.78;3082933;46;21079;-73
2024/01/19 03:50:02;;;;;;;4.00;1.70;;;2.00;92.60;;;3.85;62.79;101024.66;3083563;46;20511;-73
2024/01/19 03:52:31;;;;;;;2.27;1.37;;;2.00;92.60;;;3.92;62.73;101020.59;3083368;46;20428;-73
2024/01/19 03:55:00;;;;;;;3.37;1.60;;;2.10;92.70;;;3.99;63.12;101006.13;3082381;46;20463;-73
2024/01/19 03:57:29;;;;;;;4.50;1.30;;;2.20;92.80;;;4.04;63.18;101014.38;3082155;46;20586;-73
2024/01/19 03:59:57;;;;;;;2.87;1.40;;;2.20;92.90;;;4.06;62.92;101007.28;3082854;46;21035;-73
2024/01/19 04:02:26;;;;;;;2.87;0.97;;;2.30;93.10;;;4.08;62.97;101009.75;3083086;46;21001;-72
2024/01/19 04:04:54;;;;;;;3.90;1.23;;;2.30;93.10;;;4.10;63.32;101003.47;3082902;46;20528;-73
2024/01/19 04:07:23;;;;;;;2.70;1.03;;;2.30;93.20;;;4.10;63.08;101010.47;3082581;46;20576;-72
2024/01/19 04:09:51;;;;;;;4.37;1.20;;;2.40;93.20;;;4.09;63.80;101011.41;3083059;46;20548;-73
2024/01/19 04:12:20;;;;;;;5.17;1.10;;;2.40;93.30;;;4.05;63.73;101021.25;3082957;46;20497;-73
2024/01/19 04:14:48;;;;;;;4.03;1.00;;;2.40;93.30;;;3.99;63.79;101016.53;3082949;46;20466;-73
2024/01/19 04:17:16;;;;;;;1.83;1.30;;;2.40;93.40;;;3.96;64.19;101026.38;3082810;46;21030;-72
2024/01/19 04:19:45;;;;;;;3.20;1.33;;;2.40;93.30;;;3.92;64.40;101030.22;3083092;46;20432;-72
2024/01/19 04:22:13;;;;;;;1.33;0.67;;;2.40;93.40;;;3.90;64.61;101027.72;3083073;46;20504;-73
2024/01/19 04:24:42;;;;;;;4.13;1.30;;;2.40;93.40;;;3.92;64.60;101041.41;3082918;46;20486;-73
2024/01/19 04:27:10;;;;;;;1.10;1.07;;;2.30;93.70;;;3.93;64.84;101037.88;3082680;46;21014;-73
2024/01/19 04:29:38;;;;;;;5.23;1.10;;;2.30;93.70;;;3.93;64.52;101037.03;3082835;46;21479;-73
2024/01/19 04:32:07;;;;;;;1.57;0.90;;;2.30;93.80;;;3.91;64.78;101050.19;3082998;46;20462;-73
2024/01/19 04:34:35;;;;;;;2.40;1.43;;;2.30;93.80;;;3.88;64.90;101045.22;3082879;46;20437;-72
2024/01/19 04:37:04;;;;;;;3.40;1.13;;;2.30;94.00;;;3.86;64.87;101041.94;3082807;46;20445;-73
2024/01/19 04:39:32;;;;;;;1.90;1.10;;;2.30;93.70;;;3.82;65.01;101043.13;3082881;46;21103;-73
2024/01/19 04:42:00;;;;;;;2.17;1.17;;;2.30;93.80;;;3.80;65.38;101057.22;3082779;46;21014;-73
2024/01/19 04:44:29;;;;;;;2.27;1.13;;;2.30;93.80;;;3.77;65.01;101053.09;3083031;46;20591;-73
2024/01/19 04:46:57;;;;;;;1.30;1.17;;;2.20;93.70;;;3.73;65.10;101072.47;3082607;46;20434;-72
2024/01/19 04:49:26;;;;;;;2.03;1.00;;;2.20;93.80;;;3.71;65.49;101073.59;3082762;46;20459;-73
2024/01/19 04:51:54;;;;;;;2.80;0.97;;;2.20;93.90;;;3.68;65.51;101074.66;3082652;46;20432;-73
2024/01/19 04:54:22;;;;;;;2.10;1.07;;;2.20;93.80;;;3.68;65.65;101069.44;3082570;46;20501;-72
2024/01/19 04:56:51;;;;;;;1.93;1.30;;;2.10;94.00;;;3.71;65.51;101078.78;3082210;46;20584;-72
2024/01/19 04:59:19;;;;;;;2.03;1.20;;;2.10;94.10;;;3.73;65.74;101072.47;3082765;46;20526;-73
2024/01/19 05:01:48;;;;;;;1.70;1.07;;;2.20;94.20;;;3.76;65.61;101074.00;3082589;46;20489;-73
2024/01/19 05:04:16;;;;;;;3.67;1.20;;;2.10;94.20;;;3.76;65.67;101089.63;3082537;46;21090;-73
2024/01/19 05:06:45;;;;;;;2.53;1.33;;;2.10;94.20;;;3.76;65.70;101084.41;3082486;46;20438;-72
2024/01/19 05:09:14;;;;;;;4.00;1.47;;;2.10;94.50;;;3.76;65.90;101090.47;3082750;46;20427;-73
2024/01/19 05:11:42;;;;;;;2.63;1.40;;;2.10;94.20;;;3.76;65.94;101093.06;3082403;46;20863;-73
2024/01/19 05:14:11;;;;;;;5.93;1.40;;;2.10;94.20;;;3.76;65.81;101090.47;3082644;46;21075;-72
2024/01/19 05:16:39;;;;;;;5.23;1.77;;;2.10;94.20;;;3.75;65.60;101099.25;3082707;46;20459;-73
2024/01/19 05:19:08;;;;;;;2.00;1.60;;;2.20;94.20;;;3.70;65.82;101103.97;3082300;46;20445;-73
2024/01/19 05:21:36;;;;;;;2.93;1.17;;;2.20;94.20;;;3.66;65.88;101107.75;3082407;46;20434;-73
2024/01/19 05:24:05;;;;;;;3.50;1.63;;;2.10;94.10;;;3.61;66.14;101119.50;3082400;46;20441;-73
2024/01/19 05:26:33;;;;;;;4.73;2.07;;;2.10;94.00;;;3.57;66.17;101121.50;3082197;46;20438;-73
2024/01/19 05:29:02;;;;;;;2.00;1.50;;;2.00;94.10;;;3.57;65.93;101115.44;3081982;46;20481;-73
2024/01/19 05:31:30;;;;;;;3.67;1.77;;;2.00;94.20;;;3.53;65.89;101133.09;3082150;46;20500;-73
2024/01/19 05:33:58;;;;;;;4.40;2.43;;;2.00;94.20;;;3.52;66.15;101130.63;3082252;46;20434;-73
2024/01/19 05:36:27;;;;;;;3.40;1.77;;;2.00;94.20;;;3.51;66.03;101129.78;3082033;46;20504;-72
2024/01/19 05:38:55;;;;;;;7.90;2.10;;;1.90;94.20;;;3.49;65.96;101131.69;3082359;46;20457;-73
2024/01/19 05:41:24;;;;;;;6.77;1.80;;;1.90;94.40;;;3.47;66.27;101133.56;3082386;46;20438;-72
2024/01/19 05:43:52;;;;;;;3.37;1.90;;;1.90;94.10;;;3.43;65.99;101132.16;3082238;46;20441;-73
2024/01/19 05:46:21;;;;;;;5.30;2.03;;;1.90;94.10;;;3.41;66.06;101131.44;3081381;46;20446;-70
2024/01/19 05:48:49;;;;;;;4.00;1.70;;;1.90;94.10;;;3.37;66.04;101133.47;3081743;46;20498;-73
2024/01/19 05:51:18;;;;;;;5.43;2.67;;;1.80;94.00;;;3.36;66.18;101143.97;3081281;46;20438;-73
2024/01/19 05:53:46;;;;;;;3.73;2.03;;;1.80;94.10;;;3.34;66.11;101148.47;3081776;46;20979;-74
2024/01/19 05:56:15;;;;;;;4.63;2.30;;;1.80;94.10;;;3.29;65.90;101156.63;3082020;46;20438;-75
2024/01/19 05:58:44;;;;;;;5.50;2.20;;;1.80;94.00;;;3.29;66.09;101153.19;3081079;46;20501;-73
2024/01/19 06:01:12;;;;;;;3.40;2.00;;;1.80;94.10;;;3.27;66.37;101162.88;3081887;46;20524;-73
2024/01/19 06:03:41;;;;;;;3.97;2.10;;;1.70;94.10;;;3.27;65.95;101178.50;3082094;46;20528;-73
2024/01/19 06:06:10;;;;;;;3.20;2.57;;;1.70;94.10;;;3.26;66.05;101176.81;3081627;46;20611;-72
2024/01/19 06:08:40;;;;;;;3.50;2.23;;;1.70;94.10;;;3.28;66.07;101180.16;3081141;46;20701;-73
2024/01/19 06:11:08;;;;;;;8.17;2.53;;;1.70;94.20;;;3.25;66.10;101180.38;3081811;46;21094;-72
2024/01/19 06:13:40;;;;;;;5.13;2.50;;;1.70;94.50;;;3.26;66.21;101193.25;3080790;46;20563;-73
2024/01/19 06:16:08;;;;;;;3.13;2.73;;;1.70;94.10;;;3.30;66.35;101204.28;3081793;46;20467;-73
2024/01/19 06:18:37;;;;;;;4.10;2.77;;;1.70;94.20;;;3.38;66.45;101209.69;3081236;46;20485;-72
2024/01/19 06:21:11;;;;;;;4.60;3.17;;;1.70;94.20;;;3.45;66.53;101223.91;3081860;46;20528;-73
2024/01/19 06:23:40;;;;;;;6.13;3.00;;;1.70;94.40;;;3.56;66.15;101238.69;3081581;46;20475;-73
2024/01/19 06:26:10;;;;;;;5.77;3.03;;;1.80;94.60;;;3.65;66.31;101233.63;3081379;46;20464;-72
2024/01/19 06:28:40;;;;;;;5.80;2.80;;;1.80;94.60;;;3.75;65.96;101229.38;3081196;46;21155;-73
2024/01/19 06:31:10;;;;;;;4.97;2.87;;;1.90;94.60;;;3.79;66.07;101228.19;3081696;46;20438;-73
2024/01/19 06:33:38;;;;;;;6.37;3.10;;;2.00;94.60;;;3.76;65.78;101227.56;3081514;46;20432;-73
2024/01/19 06:36:09;;;;;;;3.73;2.97;;;2.00;94.40;;;3.69;65.50;101232.44;3081605;46;20443;-73
2024/01/19 06:38:38;;;;;;;5.70;2.83;;;2.00;94.30;;;3.62;65.87;101226.03;3081263;46;20451;-73
2024/01/19 06:41:07;;;;;;;4.00;2.50;;;2.00;94.20;;;3.57;65.54;101228.16;3081781;46;20456;-73
2024/01/19 06:43:36;;;;;;;5.67;2.30;;;2.00;94.20;;;3.51;65.71;101231.25;3081672;46;20438;-73
2024/01/19 06:46:05;;;;;;;4.00;3.07;;;1.90;94.20;;;3.46;66.01;101235.97;3081220;46;21075;-73
2024/01/19 06:48:34;;;;;;;8.57;3.13;;;1.90;94.20;;;3.40;65.96;101226.84;3080915;46;20466;-73
2024/01/19 06:51:03;;;;;;;5.10;3.13;;;1.90;94.20;;;3.37;65.90;101234.91;3081395;46;20432;-73
2024/01/19 06:53:31;;;;;;;5.90;3.23;;;1.80;94.20;;;3.31;66.06;101248.34;3081320;46;20434;-73
2024/01/19 06:55:59;;;;;;;4.13;3.20;;;1.80;94.30;;;3.29;66.18;101249.41;3081662;46;20483;-73
2024/01/19 06:58:36;;;;;;;4.77;2.93;;;1.80;94.30;;;3.25;66.36;101263.59;3080473;46;20560;-73
2024/01/19 07:01:04;;;;;;;8.93;3.37;;;1.70;94.30;;;3.22;66.60;101258.63;3081522;46;20514;-73
2024/01/19 07:03:33;;;;;;;3.93;2.97;;;1.70;94.40;;;3.19;66.47;101274.44;3081509;46;20438;-73
2024/01/19 07:06:01;;;;;;;4.10;3.00;;;1.70;94.30;;;3.15;66.46;101279.06;3081263;46;21004;-73
2024/01/19 07:08:30;;;;;;;7.50;3.03;;;1.60;94.40;;;3.14;66.78;101277.38;3080659;46;20935;-72
2024/01/19 07:10:58;;;;;;;4.23;3.23;;;1.60;94.50;;;3.12;66.79;101284.47;3081165;46;20501;-73
2024/01/19 07:13:27;;;;;;;3.20;2.90;;;1.60;94.60;;;3.11;67.03;101292.41;3081104;46;20435;-72
2024/01/19 07:15:55;;;;;;;4.60;3.20;;;1.60;94.60;;;3.09;66.86;101284.69;3081370;46;20477;-73
2024/01/19 07:18:23;;;;;;;9.90;3.40;;;1.50;94.60;;;3.08;66.79;101283.06;3080768;46;20443;-72
2024/01/19 07:20:52;;;;;;;4.90;2.73;;;1.50;94.60;;;3.06;67.04;101290.16;3081315;46;21098;-73
2024/01/19 07:23:20;;;;;;;10.20;3.47;;;1.50;94.70;;;3.05;67.20;101293.69;3080688;43;20434;-73
2024/01/19 07:25:49;;;;;;;6.70;2.97;;;1.50;94.70;;;3.05;66.94;101298.88;3079795;46;21104;-73
2024/01/19 07:28:17;;;;;;;5.17;2.57;;;1.50;94.80;;;3.04;67.24;101297.22;3080552;46;20446;-73
2024/01/19 07:30:45;;;;;;;8.17;3.10;;;1.50;95.00;;;3.04;67.17;101299.00;3081379;46;20427;-73
2024/01/19 07:33:14;;;;;;;5.93;2.30;;;1.50;95.00;;;3.05;67.28;101305.84;3080332;46;20544;-73
2024/01/19 07:35:55;;;;;;;3.40;2.57;;;1.50;95.00;;;3.05;67.37;101313.63;3080779;46;20960;-73
2024/01/19 07:38:23;;;;;;;7.50;2.70;;;1.50;95.00;;;3.04;67.48;101318.03;3080459;46;20458;-72
2024/01/19 07:40:52;;;;;;;5.80;2.70;;;1.50;95.00;;;3.05;67.43;101324.88;3080535;46;20514;-73
2024/01/19 07:43:21;;;;;;;10.20;3.10;;;1.50;95.10;;;3.07;67.80;101335.97;3080721;46;20498;-74
2024/01/19 07:45:55;;;;;;;4.97;2.47;;;1.50;95.20;;;3.10;67.74;101337.53;3080554;46;20441;-73
2024/01/19 07:48:24;;;;;;;5.07;2.17;;;1.50;95.20;;;3.13;67.81;101332.94;3079857;46;20440;-73
2024/01/19 07:50:53;;;;;;;5.27;1.93;;;1.50;95.20;;;3.15;67.72;101330.22;3079858;46;20436;-73
2024/01/19 07:53:21;;;;;;;6.63;3.07;;;1.50;95.10;;;3.16;67.58;101337.09;3080325;46;20439;-72
2024/01/19 07:55:50;;;;;;;5.27;2.57;;;1.50;95.10;;;3.19;67.79;101336.84;3080674;46;20517;-73
2024/01/19 07:58:18;;;;;;;8.47;2.67;;;1.60;95.30;;;3.21;67.61;101330.59;3080129;46;20458;-73
2024/01/19 08:00:47;;;;;;;5.87;2.63;;;1.60;95.30;;;3.23;67.58;101338.31;3080513;46;20454;-73
2024/01/19 08:03:17;;;;;;;6.43;2.27;;;1.60;95.30;;;3.25;67.84;101345.06;3080060;46;20579;-73
2024/01/19 08:05:46;;;;;;;6.27;2.13;;;1.60;95.20;;;3.27;67.52;101347.53;3079501;46;21144;-73
2024/01/19 08:08:15;;;;;;;4.83;1.70;;;1.60;95.10;;;3.30;67.84;101344.72;3081006;46;20548;-73
2024/01/19 08:10:43;;;;;;;5.07;2.50;;;1.60;95.10;;;3.33;67.80;101358.31;3083340;46;21060;-73
2024/01/19 08:13:12;;;;;;;6.03;2.30;;;1.70;95.20;;;3.39;67.92;101359.63;3083118;46;20427;-73
2024/01/19 08:15:40;;;;;;;5.17;2.00;;;1.70;95.20;;;3.42;67.40;101364.63;3082775;46;20434;-73
2024/01/19 08:18:09;;;;;;;4.17;2.13;;;1.80;95.10;;;3.46;67.68;101366.03;3081252;43;20483;-73
2024/01/19 08:20:37;;;;;;;3.77;1.90;;;1.80;95.10;;;3.49;67.69;101365.81;3082781;46;20434;-73
2024/01/19 08:23:06;;;;;;;7.43;2.57;;;1.80;95.10;;;3.52;67.57;101367.38;3083070;46;20441;-73
2024/01/19 08:25:34;;;;;;;11.40;2.40;;;1.80;95.30;;;3.55;67.62;101374.94;3082763;46;20451;-73
2024/01/19 08:28:03;;;;;;;2.60;2.00;;;1.90;95.00;;;3.57;67.32;101379.06;3082321;46;20445;-73
2024/01/19 08:30:32;;;;;;;5.33;1.93;;;1.90;94.80;;;3.61;66.98;101385.75;3082899;46;20993;-73
2024/01/19 08:33:01;;;;;;;4.37;2.37;;;1.90;94.70;;;3.62;66.90;101382.16;3082473;46;20547;-73
2024/01/19 08:35:30;;;;;;;10.67;2.40;;;2.00;94.70;;;3.66;66.71;101388.00;3082919;46;21064;-72
2024/01/19 08:37:59;;;;;;;8.43;2.53;;;2.00;94.60;;;3.74;66.69;101396.88;3082560;43;21062;-73
2024/01/19 08:40:27;;;;;;;5.30;2.00;;;2.10;94.60;;;3.80;66.97;101401.63;3082398;46;20435;-72
2024/01/19 08:42:55;;;;;;;4.27;1.90;;;2.10;94.60;;;3.83;66.25;101404.00;3082565;46;20458;-72
2024/01/19 08:45:24;;;;;;;9.10;2.23;;;2.10;94.40;;;3.85;66.45;101404.69;3082372;46;20433;-73
2024/01/19 08:47:56;;;;;;;6.33;2.13;;;2.20;94.40;;;3.88;66.09;101409.69;3081160;46;20577;-73
2024/01/19 08:50:25;;;;;;;4.20;2.00;;;2.20;94.30;;;3.91;66.34;101409.47;3081481;46;20509;-72
2024/01/19 08:52:53;;;;;;;5.67;2.10;;;2.30;94.20;;;3.95;66.37;101410.03;3082076;46;20431;-73
2024/01/19 08:55:22;;;;;;;6.53;2.27;;;2.30;94.20;;;3.98;65.94;101409.81;3081828;46;21093;-73
2024/01/19 08:57:50;;;;;;;4.03;2.10;;;2.30;94.10;;;4.00;65.90;101407.94;3081279;46;20494;-73
2024/01/19 09:00:19;;;;;;;4.50;2.00;;;2.30;94.10;;;4.03;65.99;101403.34;3082512;46;20466;-73
2024/01/19 09:02:50;;;;;;;6.20;2.10;;;2.40;94.00;;;4.06;65.56;101416.09;3082415;46;20448;-73
2024/01/19 09:05:29;;;;;;;5.67;2.37;;;2.40;94.00;;;4.09;65.67;101426.28;3082410;46;20477;-73
2024/01/19 09:07:58;;;;;;;5.97;2.73;;;2.40;93.90;;;4.14;65.83;101425.13;3081996;46;20483;-73
2024/01/19 09:10:27;;;;;;;7.20;2.80;;;2.40;93.80;;;4.18;65.32;101429.16;3082468;46;20552;-73
2024/01/19 09:12:55;;;;;;;6.83;3.23;;;2.50;93.80;;;4.23;65.67;101437.47;3082541;46;20463;-73
2024/01/19 09:15:24;;;;;;;8.07;2.80;;;2.50;93.80;;;4.27;65.44;101447.53;3082393;46;20452;-71
2024/01/19 09:17:52;;;;;;;5.73;2.97;;;2.60;93.80;;;4.31;64.98;101441.13;3081528;43;20544;-72
2024/01/19 09:20:21;;;;;;;6.63;3.87;;;2.60;93.70;;;4.36;65.04;101453.81;3081220;46;20561;-72
2024/01/19 09:22:49;;;;;;;4.70;2.60;;;2.60;93.60;;;4.41;65.12;101438.66;3082159;46;20427;-74
2024/01/19 09:25:18;;;;;;;6.30;2.90;;;2.70;93.60;;;4.43;64.70;101439.34;3082456;46;20442;-72
2024/01/19 09:27:46;;;;;;;6.87;3.00;;;2.70;93.50;;;4.45;64.47;101437.47;3081778;46;20470;-73
2024/01/19 09:30:17;;;;;;;5.67;2.90;;;2.70;93.40;;;4.47;64.57;101444.22;3082009;46;20459;-73
2024/01/19 09:32:45;;;;;;;9.17;3.00;;;2.80;93.30;;;4.49;64.29;101439.72;3081395;46;20459;-72
2024/01/19 09:35:14;;;;;;;6.37;2.87;;;2.80;93.30;;;4.55;64.67;101446.22;3081089;46;20466;-72
2024/01/19 09:37:42;;;;;;;10.53;2.90;;;2.80;93.20;;;4.58;64.17;101440.78;3079741;46;20468;-72
2024/01/19 09:40:12;;;;;;;6.73;2.87;;;2.90;93.30;;;4.65;64.34;101457.63;3080172;46;20531;-72
2024/01/19 09:42:41;;;;;;;8.90;3.13;;;2.90;93.20;;;4.67;64.11;101460.94;3081264;44;20481;-73
2024/01/19 09:45:18;;;;;;;7.50;3.07;;;2.90;93.20;;;4.71;64.06;101467.56;3081155;46;20455;-73
2024/01/19 09:48:23;;;;;;;8.57;3.33;;;3.00;93.10;;;4.75;63.92;101485.44;3081441;46;20474;-72
2024/01/19 09:50:53;;;;;;;10.17;2.97;;;3.00;93.00;;;4.82;63.51;101480.59;3082193;46;20529;-72
2024/01/19 09:53:32;;;;;;;9.03;2.73;;;3.10;93.00;;;4.88;63.87;101480.13;3080899;46;21027;-72
2024/01/19 09:56:02;;;;;;;8.83;3.20;;;3.10;93.00;;;5.01;64.07;101506.91;3080449;43;21003;-74
2024/01/19 09:58:31;;;;;;;9.10;3.67;;;3.20;93.00;;;5.08;63.27;101499.44;3080516;46;21034;-72
2024/01/19 10:01:01;;;;;;;5.17;3.17;;;3.30;92.80;;;5.17;63.42;101502.16;3082116;46;20515;-73
2024/01/19 10:03:30;;;;;;;5.20;3.17;;;3.30;92.70;;;5.40;63.03;101489.88;3081459;46;20437;-73
2024/01/19 10:06:00;;;;;;;10.97;3.63;;;3.40;92.70;;;5.86;63.39;101484.41;3080581;46;20443;-73
2024/01/19 10:08:30;;;;;;;6.73;3.73;;;3.60;93.20;;;6.39;63.74;101488.63;3080496;43;20450;-73
2024/01/19 10:11:04;;;;;;;6.03;3.27;;;3.90;93.50;;;6.69;61.77;101495.66;3079591;46;20480;-73
2024/01/19 10:13:33;;;;;;;7.00;2.70;;;4.20;92.70;;;6.99;60.88;101489.59;3080995;46;20438;-73
2024/01/19 10:16:03;;;;;;;7.03;3.10;;;4.50;92.40;;;7.40;60.47;101492.84;3081334;46;21087;-73
2024/01/19 10:18:32;;;;;;;8.47;4.80;;;4.80;92.40;;;7.91;60.35;101497.03;3080211;46;20439;-72
2024/01/19 10:21:02;;;;;;;8.07;2.90;;;5.20;92.60;;;8.39;59.54;101491.75;3081432;46;20452;-73
2024/01/19 10:23:31;;;;;;;7.27;2.67;;;5.60;92.20;;;8.78;58.48;101495.91;3081030;46;20435;-72
2024/01/19 10:26:14;;;;;;;4.17;2.57;;;5.90;91.70;;;9.25;57.13;101507.97;3080336;46;20460;-73
2024/01/19 10:28:43;;;;;;;5.23;2.70;;;6.40;90.50;;;9.70;55.59;101494.00;3079435;46;20509;-73
2024/01/19 10:31:22;;;;;;;4.50;2.80;;;6.70;89.30;;;10.18;54.70;101497.88;3080652;46;20428;-73
2024/01/19 10:33:56;;;;;;;4.40;2.30;;;7.10;87.80;;;10.41;52.62;101505.28;3080996;46;20519;-73